Welling, Oklahoma
Current Conditions -  °F | °C
As of 4:35 PM on Monday 26 Jan 2015 (Local Time) from KTQH Reporting Station
Clear Clear  
Wind Chill: 61°   Ceiling: Unl
Heat Index: 61°   Visibility: 10mi
Dew Point: 34°   Wind: 3mph
Humidity: 36%   Direction: 260°W
Pressure: 29.99"   Gusts: NA
Location:  35.88°N, 94.9°W
Report Text: KTQH 262235Z AUTO 26003KT 10SM CLR 16/01 A2999 RMK AO2
Loading
Personal Weather Stations






























Interactive Weather Map New forecast layout! Learn more

10-Day Weather Forecast

Advertisements
Track Severe Weather on mobile